Time;durP1;ratioP1;P1;durP2;ratioP2;P2;SDS_P1;SDS_P2;PMS_P1;PMS_P2;Temp;Humidity;BMP_temperature;BMP_pressure;BME280_temperature;BME280_humidity;BME280_pressure;Samples;Min_cycle;Max_cycle;Signal;HPM_P1;HPM_P2
2024/03/24 00:01:16;;;;;;;;;;;;;;;4.19;100.00;95511.66;108580;1273;124441;-84
2024/03/24 00:03:51;;;;;;;;;;;;;;;4.21;100.00;95492.50;108698;1280;22565;-84
2024/03/24 00:06:17;;;;;;;;;;;;;;;4.19;100.00;95485.27;108600;1280;124968;-84
2024/03/24 00:08:43;;;;;;;;;;;;;;;4.19;100.00;95475.22;108707;1272;23033;-86
2024/03/24 00:11:10;;;;;;;;;;;;;;;4.20;100.00;95458.79;108550;1275;125083;-86
2024/03/24 00:13:36;;;;;;;;;;;;;;;4.20;100.00;95446.16;108667;1274;23206;-84
2024/03/24 00:16:03;;;;;;;;;;;;;;;4.17;100.00;95444.17;108706;1277;22495;-84
2024/03/24 00:18:29;;;;;;;;;;;;;;;4.18;100.00;95459.77;108533;1273;124559;-84
2024/03/24 00:20:55;;;;;;;;;;;;;;;4.17;100.00;95462.75;108637;1275;23348;-84
2024/03/24 00:23:22;;;;;;;;;;;;;;;4.13;100.00;95450.37;108566;1277;124862;-84
2024/03/24 00:25:48;;;;;;;;;;;;;;;4.08;100.00;95442.51;108654;1273;22675;-84
2024/03/24 00:28:14;;;;;;;;;;;;;;;4.03;100.00;95451.08;108738;1272;22555;-84
2024/03/24 00:30:41;;;;;;;;;;;;;;;4.01;100.00;95459.63;108563;1275;124972;-84
2024/03/24 00:33:07;;;;;;;;;;;;;;;4.02;100.00;95464.94;108649;1280;22681;-84
2024/03/24 00:35:34;;;;;;;;;;;;;;;4.02;100.00;95459.95;108475;1278;124930;-84
2024/03/24 00:38:00;;;;;;;;;;;;;;;4.01;100.00;95456.30;108638;1281;22590;-84
2024/03/24 00:40:26;;;;;;;;;;;;;;;3.99;100.00;95448.05;108727;1280;25242;-84
2024/03/24 00:42:52;;;;;;;;;;;;;;;3.98;100.00;95438.13;108470;1280;124820;-84
2024/03/24 00:45:19;;;;;;;;;;;;;;;3.93;100.00;95420.95;108635;1274;22561;-84
2024/03/24 00:47:45;;;;;;;;;;;;;;;3.88;100.00;95413.23;108549;1273;124598;-84
2024/03/24 00:50:14;;;;;;;;;;;;;;;3.83;100.00;95403.84;108699;1280;22572;-84
2024/03/24 00:52:40;;;;;;;;;;;;;;;3.79;100.00;95398.33;108870;1272;22511;-84
2024/03/24 00:55:07;;;;;;;;;;;;;;;3.78;100.00;95408.39;108594;1275;125052;-84
2024/03/24 00:57:33;;;;;;;;;;;;;;;3.79;100.00;95418.50;108682;1279;22597;-84
2024/03/24 00:59:59;;;;;;;;;;;;;;;3.80;100.00;95419.90;108570;1280;125018;-84
2024/03/24 01:02:26;;;;;;;;;;;;;;;3.80;100.00;95416.86;108625;1278;25404;-83
2024/03/24 01:04:52;;;;;;;;;;;;;;;3.76;100.00;95409.55;108643;1275;23154;-84
2024/03/24 01:07:18;;;;;;;;;;;;;;;3.72;100.00;95409.70;108533;1275;125025;-84
2024/03/24 01:09:45;;;;;;;;;;;;;;;3.71;100.00;95411.88;108644;1278;25368;-87
2024/03/24 01:12:11;;;;;;;;;;;;;;;3.70;100.00;95412.66;108508;1278;125145;-87
2024/03/24 01:14:37;;;;;;;;;;;;;;;3.67;100.00;95409.55;108680;1275;22561;-88
2024/03/24 01:17:03;;;;;;;;;;;;;;;3.65;100.00;95408.40;108628;1277;124846;-87
2024/03/24 01:19:30;;;;;;;;;;;;;;;3.62;100.00;95411.62;108732;1280;22506;-87
2024/03/24 01:21:56;;;;;;;;;;;;;;;3.59;100.00;95409.38;108655;1271;22520;-87
2024/03/24 01:24:22;;;;;;;;;;;;;;;3.56;100.00;95402.27;108475;1277;124645;-87
2024/03/24 01:26:49;;;;;;;;;;;;;;;3.53;100.00;95406.41;108667;1275;22697;-88
2024/03/24 01:29:15;;;;;;;;;;;;;;;3.48;100.00;95403.95;108483;1275;124741;-88
2024/03/24 01:31:42;;;;;;;;;;;;;;;3.44;100.00;95403.41;108677;1275;25369;-88
2024/03/24 01:34:08;;;;;;;;;;;;;;;3.38;100.00;95399.89;108565;1280;22445;-88
2024/03/24 01:36:34;;;;;;;;;;;;;;;3.32;100.00;95401.06;108560;1275;125029;-87
2024/03/24 01:39:01;;;;;;;;;;;;;;;3.26;100.00;95402.55;108692;1280;23231;-87
2024/03/24 01:41:28;;;;;;;;;;;;;;;3.21;100.00;95402.17;108532;1280;125150;-87
2024/03/24 01:43:55;;;;;;;;;;;;;;;3.16;100.00;95400.74;108750;1275;22501;-87
2024/03/24 01:46:21;;;;;;;;;;;;;;;3.11;100.00;95404.83;108744;1272;22533;-88
2024/03/24 01:48:47;;;;;;;;;;;;;;;3.09;100.00;95403.69;108585;1275;124635;-88
2024/03/24 01:51:14;;;;;;;;;;;;;;;3.07;100.00;95404.21;108685;1277;25250;-88
2024/03/24 01:53:40;;;;;;;;;;;;;;;3.04;100.00;95414.65;108703;1280;124740;-88
2024/03/24 01:56:06;;;;;;;;;;;;;;;3.02;100.00;95422.38;108761;1280;22450;-87
2024/03/24 01:58:33;;;;;;;;;;;;;;;3.00;100.00;95426.10;108733;1273;22642;-87
2024/03/24 02:00:59;;;;;;;;;;;;;;;2.97;100.00;95418.59;108582;1280;124542;-87
2024/03/24 02:03:29;;;;;;;;;;;;;;;2.93;100.00;95420.02;108625;1280;22479;-87
2024/03/24 02:05:58;;;;;;;;;;;;;;;2.88;100.00;95427.32;108560;1274;125165;-88
2024/03/24 02:08:25;;;;;;;;;;;;;;;2.85;100.00;95431.59;108654;1280;22535;-87
2024/03/24 02:10:51;;;;;;;;;;;;;;;2.87;100.00;95430.23;108652;1280;22570;-87
2024/03/24 02:13:17;;;;;;;;;;;;;;;2.88;100.00;95431.17;108537;1280;124380;-87
2024/03/24 02:15:44;;;;;;;;;;;;;;;2.88;100.00;95428.41;108700;1278;23803;-88
2024/03/24 02:18:10;;;;;;;;;;;;;;;2.86;100.00;95426.04;108513;1280;125213;-87
2024/03/24 02:20:37;;;;;;;;;;;;;;;2.89;100.00;95428.15;108710;1280;22532;-87
2024/03/24 02:23:03;;;;;;;;;;;;;;;2.92;100.00;95426.27;108609;1276;124762;-87
2024/03/24 02:25:29;;;;;;;;;;;;;;;2.97;100.00;95428.52;108761;1280;22500;-87
2024/03/24 02:27:56;;;;;;;;;;;;;;;3.04;100.00;95429.31;108709;1280;23351;-86
2024/03/24 02:30:23;;;;;;;;;;;;;;;3.10;100.00;95425.70;108622;1280;125116;-88
2024/03/24 02:32:49;;;;;;;;;;;;;;;3.12;100.00;95426.80;108653;1275;23997;-87
2024/03/24 02:35:15;;;;;;;;;;;;;;;3.14;100.00;95432.86;108612;1263;124847;-87
2024/03/24 02:37:41;;;;;;;;;;;;;;;3.18;100.00;95424.45;108688;1273;22527;-87
2024/03/24 02:40:09;;;;;;;;;;;;;;;3.23;100.00;95418.57;108625;1280;22462;-87
2024/03/24 02:42:35;;;;;;;;;;;;;;;3.29;100.00;95419.52;108523;1262;125214;-87
2024/03/24 02:45:02;;;;;;;;;;;;;;;3.35;100.00;95414.95;108644;1275;23473;-87
2024/03/24 02:47:28;;;;;;;;;;;;;;;3.36;100.00;95412.16;108545;1280;124888;-87
2024/03/24 02:49:54;;;;;;;;;;;;;;;3.36;100.00;95410.27;108650;1280;23294;-87
2024/03/24 02:52:20;;;;;;;;;;;;;;;3.38;100.00;95407.19;108634;1275;22820;-87
2024/03/24 02:54:47;;;;;;;;;;;;;;;3.39;100.00;95413.70;108544;1278;124685;-87
2024/03/24 02:57:13;;;;;;;;;;;;;;;3.37;100.00;95409.30;108629;1280;22497;-87
2024/03/24 02:59:39;;;;;;;;;;;;;;;3.34;100.00;95409.44;108621;1280;124721;-87
2024/03/24 03:02:05;;;;;;;;;;;;;;;3.29;100.00;95408.00;108686;1280;22503;-87
2024/03/24 03:04:32;;;;;;;;;;;;;;;3.25;100.00;95407.39;108634;1275;22554;-87
2024/03/24 03:06:58;;;;;;;;;;;;;;;3.23;100.00;95408.38;108567;1276;124732;-88
2024/03/24 03:09:26;;;;;;;;;;;;;;;3.19;100.00;95410.30;108692;1280;22558;-87
2024/03/24 03:11:53;;;;;;;;;;;;;;;3.15;100.00;95410.37;108521;1273;124682;-87
2024/03/24 03:14:20;;;;;;;;;;;;;;;3.10;100.00;95406.68;108651;1275;22461;-88
2024/03/24 03:16:46;;;;;;;;;;;;;;;3.06;100.00;95399.89;108623;1278;22547;-86
2024/03/24 03:19:12;;;;;;;;;;;;;;;3.06;100.00;95398.35;108485;1273;124733;-86
2024/03/24 03:21:38;;;;;;;;;;;;;;;3.03;100.00;95394.02;108750;1278;22496;-86
2024/03/24 03:24:05;;;;;;;;;;;;;;;2.98;100.00;95395.92;108687;1278;125011;-86
2024/03/24 03:26:31;;;;;;;;;;;;;;;2.95;100.00;95388.73;108893;1278;22579;-86
2024/03/24 03:28:58;;;;;;;;;;;;;;;2.93;100.00;95386.87;108632;1279;124846;-86
2024/03/24 03:31:24;;;;;;;;;;;;;;;2.90;100.00;95389.52;108650;1280;22593;-87
2024/03/24 03:33:51;;;;;;;;;;;;;;;2.84;100.00;95390.64;108633;1269;22706;-87
2024/03/24 03:36:17;;;;;;;;;;;;;;;2.82;100.00;95395.55;108503;1275;124626;-86
2024/03/24 03:38:43;;;;;;;;;;;;;;;2.79;100.00;95396.98;108648;1275;22512;-87
2024/03/24 03:41:09;;;;;;;;;;;;;;;2.78;100.00;95405.19;108508;1280;124795;-87
2024/03/24 03:43:36;;;;;;;;;;;;;;;2.78;100.00;95404.52;108650;1274;22502;-87
2024/03/24 03:46:02;;;;;;;;;;;;;;;2.77;100.00;95402.91;108688;1276;24324;-86
2024/03/24 03:48:29;;;;;;;;;;;;;;;2.73;100.00;95401.05;108542;1275;124644;-86
2024/03/24 03:50:55;;;;;;;;;;;;;;;2.71;100.00;95403.95;108624;1262;22505;-86
2024/03/24 03:53:36;;;;;;;;;;;;;;;2.74;100.00;95397.82;108554;1275;124840;-86
2024/03/24 03:56:02;;;;;;;;;;;;;;;2.80;100.00;95396.59;108618;1273;24078;-87
2024/03/24 03:58:29;;;;;;;;;;;;;;;2.85;100.00;95392.11;108704;1280;22485;-87
2024/03/24 04:00:55;;;;;;;;;;;;;;;2.92;100.00;95392.28;108466;1280;124574;-87
2024/03/24 04:03:22;;;;;;;;;;;;;;;2.98;100.00;95390.72;108632;1276;22602;-87
2024/03/24 04:05:48;;;;;;;;;;;;;;;3.05;100.00;95378.59;108509;1279;124794;-87
2024/03/24 04:08:15;;;;;;;;;;;;;;;3.10;100.00;95370.71;108775;1269;22502;-87
2024/03/24 04:10:41;;;;;;;;;;;;;;;3.13;100.00;95369.72;108692;1280;22470;-84
2024/03/24 04:13:07;;;;;;;;;;;;;;;3.17;100.00;95366.05;108586;1280;124655;-84
2024/03/24 04:15:35;;;;;;;;;;;;;;;3.20;100.00;95365.69;108617;1280;22552;-84
2024/03/24 04:18:02;;;;;;;;;;;;;;;3.22;100.00;95369.35;108599;1280;125142;-84
2024/03/24 04:20:28;;;;;;;;;;;;;;;3.24;100.00;95376.92;108606;1280;22587;-84
2024/03/24 04:22:55;;;;;;;;;;;;;;;3.26;99.88;95378.80;108788;1279;22558;-84
2024/03/24 04:25:21;;;;;;;;;;;;;;;3.27;99.70;95381.63;108564;1279;124236;-85
2024/03/24 04:27:48;;;;;;;;;;;;;;;3.26;99.75;95381.86;108665;1279;22620;-84
2024/03/24 04:30:15;;;;;;;;;;;;;;;3.23;99.53;95380.55;108527;1276;125021;-84
2024/03/24 04:32:42;;;;;;;;;;;;;;;3.22;99.76;95388.60;108643;1280;22633;-84
2024/03/24 04:35:10;;;;;;;;;;;;;;;3.22;99.60;95386.87;108524;1257;124505;-84
2024/03/24 04:37:37;;;;;;;;;;;;;;;3.25;99.94;95380.94;108644;1275;22499;-84
2024/03/24 04:40:06;;;;;;;;;;;;;;;3.27;100.00;95379.48;108695;1262;22536;-84
2024/03/24 04:42:33;;;;;;;;;;;;;;;3.25;99.96;95380.18;108602;1268;124568;-84
2024/03/24 04:45:00;;;;;;;;;;;;;;;3.25;99.76;95378.21;108584;1275;22558;-84
2024/03/24 04:47:30;;;;;;;;;;;;;;;3.24;99.85;95379.52;108618;1276;124682;-84
2024/03/24 04:49:56;;;;;;;;;;;;;;;3.23;100.00;95376.95;108666;1275;24203;-84
2024/03/24 04:52:23;;;;;;;;;;;;;;;3.23;99.92;95375.09;108683;1278;22460;-84
2024/03/24 04:54:49;;;;;;;;;;;;;;;3.26;99.90;95369.86;108593;1278;124676;-84
2024/03/24 04:57:16;;;;;;;;;;;;;;;3.30;99.76;95370.29;108760;1280;22623;-84
2024/03/24 04:59:42;;;;;;;;;;;;;;;3.32;100.00;95372.83;108562;1280;124793;-84
2024/03/24 05:02:09;;;;;;;;;;;;;;;3.34;100.00;95373.98;108662;1280;25393;-84
2024/03/24 05:04:36;;;;;;;;;;;;;;;3.39;99.92;95378.61;108599;1275;24201;-84
2024/03/24 05:07:02;;;;;;;;;;;;;;;3.41;99.96;95378.69;108538;1278;124526;-84
2024/03/24 05:09:28;;;;;;;;;;;;;;;3.45;99.97;95382.45;108621;1280;22507;-84
2024/03/24 05:11:55;;;;;;;;;;;;;;;3.47;99.79;95380.98;108492;1281;124531;-84
2024/03/24 05:14:22;;;;;;;;;;;;;;;3.51;99.71;95379.55;108700;1280;22936;-85
2024/03/24 05:16:50;;;;;;;;;;;;;;;3.54;99.75;95378.44;108614;1281;24142;-84
2024/03/24 05:19:16;;;;;;;;;;;;;;;3.58;99.64;95378.64;108520;1280;124469;-84
2024/03/24 05:21:44;;;;;;;;;;;;;;;3.60;99.70;95381.24;108693;1273;22499;-86
2024/03/24 05:24:10;;;;;;;;;;;;;;;3.63;99.51;95385.36;108518;1280;125371;-84
2024/03/24 05:26:38;;;;;;;;;;;;;;;3.64;99.79;95383.84;108605;1281;22537;-84
2024/03/24 05:29:05;;;;;;;;;;;;;;;3.66;99.78;95382.73;108524;1278;124596;-84
2024/03/24 05:31:31;;;;;;;;;;;;;;;3.68;99.60;95385.95;108628;1278;24312;-84
2024/03/24 05:33:58;;;;;;;;;;;;;;;3.68;99.25;95385.05;108631;1275;23865;-84
2024/03/24 05:36:24;;;;;;;;;;;;;;;3.70;99.63;95382.98;108485;1271;124596;-84
2024/03/24 05:38:50;;;;;;;;;;;;;;;3.72;99.82;95380.09;108612;1280;22753;-84
2024/03/24 05:41:17;;;;;;;;;;;;;;;3.72;99.46;95380.41;108575;1280;124622;-84
2024/03/24 05:43:43;;;;;;;;;;;;;;;3.71;99.64;95381.83;108634;1280;22637;-84
2024/03/24 05:46:09;;;;;;;;;;;;;;;3.69;99.68;95381.06;108577;1278;22457;-84
2024/03/24 05:48:35;;;;;;;;;;;;;;;3.69;100.00;95378.45;108547;1280;124449;-85
2024/03/24 05:51:02;;;;;;;;;;;;;;;3.67;99.92;95378.14;108674;1280;22698;-85
2024/03/24 05:53:29;;;;;;;;;;;;;;;3.68;99.87;95375.83;108500;1280;124578;-84
2024/03/24 05:55:59;;;;;;;;;;;;;;;3.70;99.65;95373.92;108675;1278;22538;-84
2024/03/24 05:58:26;;;;;;;;;;;;;;;3.72;99.78;95373.50;108598;1275;25400;-85
2024/03/24 06:00:52;;;;;;;;;;;;;;;3.74;99.80;95372.83;108597;1280;124461;-84
2024/03/24 06:03:18;;;;;;;;;;;;;;;3.77;99.90;95376.11;108690;1280;22542;-84
2024/03/24 06:05:46;;;;;;;;;;;;;;;3.80;100.00;95379.86;108530;1280;125186;-84
2024/03/24 06:08:12;;;;;;;;;;;;;;;3.83;100.00;95383.12;108621;1275;22468;-84
2024/03/24 06:10:44;;;;;;;;;;;;;;;3.86;100.00;95384.84;108689;1280;23993;-84
2024/03/24 06:13:10;;;;;;;;;;;;;;;3.88;100.00;95386.34;108523;1278;124611;-84
2024/03/24 06:15:37;;;;;;;;;;;;;;;3.90;100.00;95390.45;108630;1276;22527;-85
2024/03/24 06:18:06;;;;;;;;;;;;;;;3.90;99.92;95392.46;108578;1277;124588;-84
2024/03/24 06:20:33;;;;;;;;;;;;;;;3.89;99.63;95395.79;108663;1280;22573;-83
2024/03/24 06:23:02;;;;;;;;;;;;;;;3.89;99.92;95399.39;108587;1280;124720;-84
2024/03/24 06:25:29;;;;;;;;;;;;;;;3.91;99.90;95401.65;108651;1275;23270;-83
2024/03/24 06:28:00;;;;;;;;;;;;;;;3.92;99.95;95401.68;108614;1265;22541;-83
2024/03/24 06:30:28;;;;;;;;;;;;;;;3.96;100.00;95402.66;108581;1273;124684;-83
2024/03/24 06:32:55;;;;;;;;;;;;;;;3.98;99.75;95402.62;108588;1276;22512;-83
2024/03/24 06:35:21;;;;;;;;;;;;;;;3.94;99.27;95398.72;108602;1279;124611;-83
2024/03/24 06:37:48;;;;;;;;;;;;;;;3.89;99.20;95402.34;108739;1278;22502;-83
2024/03/24 06:40:14;;;;;;;;;;;;;;;3.86;99.47;95408.33;108728;1270;22567;-83
2024/03/24 06:42:44;;;;;;;;;;;;;;;3.73;98.62;95401.80;108510;1278;124586;-84
2024/03/24 06:45:11;;;;;;;;;;;;;;;3.56;98.15;95402.98;108634;1278;22503;-83
2024/03/24 06:47:37;;;;;;;;;;;;;;;3.47;99.14;95403.64;108521;1280;124653;-83
2024/03/24 06:50:05;;;;;;;;;;;;;;;3.40;99.54;95405.75;108700;1280;22481;-83
2024/03/24 06:52:31;;;;;;;;;;;;;;;3.35;99.96;95404.92;108616;1271;22474;-84
2024/03/24 06:54:58;;;;;;;;;;;;;;;3.30;100.00;95402.94;108603;1273;124608;-83
2024/03/24 06:57:24;;;;;;;;;;;;;;;3.32;100.00;95403.80;108762;1280;24169;-83
2024/03/24 06:59:51;;;;;;;;;;;;;;;3.30;100.00;95407.75;108534;1280;124821;-83
2024/03/24 07:02:17;;;;;;;;;;;;;;;3.31;100.00;95410.12;108651;1280;23174;-83
2024/03/24 07:04:43;;;;;;;;;;;;;;;3.34;100.00;95406.20;108636;1280;25510;-83
2024/03/24 07:07:10;;;;;;;;;;;;;;;3.36;100.00;95406.87;108509;1277;124680;-83
2024/03/24 07:09:36;;;;;;;;;;;;;;;3.39;100.00;95409.27;108625;1278;23875;-83
2024/03/24 07:12:04;;;;;;;;;;;;;;;3.44;100.00;95410.89;108532;1275;124813;-83
2024/03/24 07:14:31;;;;;;;;;;;;;;;3.56;100.00;95411.04;108590;1281;22517;-83
2024/03/24 07:16:57;;;;;;;;;;;;;;;3.72;100.00;95409.52;108583;1280;124877;-83
2024/03/24 07:19:23;;;;;;;;;;;;;;;3.90;100.00;95407.17;108609;1280;22584;-84
2024/03/24 07:21:50;;;;;;;;;;;;;;;4.05;100.00;95408.31;108587;1280;22674;-83
2024/03/24 07:24:16;;;;;;;;;;;;;;;4.15;100.00;95412.23;108493;1280;124759;-84
2024/03/24 07:26:43;;;;;;;;;;;;;;;4.23;100.00;95411.58;108610;1280;22510;-84
2024/03/24 07:29:09;;;;;;;;;;;;;;;4.27;100.00;95408.93;108488;1278;124725;-83
2024/03/24 07:31:36;;;;;;;;;;;;;;;4.31;100.00;95404.73;108673;1277;22543;-83
2024/03/24 07:34:03;;;;;;;;;;;;;;;4.39;100.00;95407.63;108601;1280;23280;-83
2024/03/24 07:36:30;;;;;;;;;;;;;;;4.47;100.00;95408.40;108454;1274;125028;-83
2024/03/24 07:38:56;;;;;;;;;;;;;;;4.59;100.00;95407.33;108610;1278;22515;-84
2024/03/24 07:41:22;;;;;;;;;;;;;;;4.67;100.00;95411.34;108512;1280;125132;-84
2024/03/24 07:43:49;;;;;;;;;;;;;;;4.71;100.00;95407.11;108777;1280;24201;-84
2024/03/24 07:46:15;;;;;;;;;;;;;;;4.71;99.43;95400.94;108738;1273;25132;-84
2024/03/24 07:48:42;;;;;;;;;;;;;;;4.70;99.13;95397.44;108511;1280;124817;-84
2024/03/24 07:51:08;;;;;;;;;;;;;;;4.75;99.33;95397.65;108671;1280;22502;-84
2024/03/24 07:53:34;;;;;;;;;;;;;;;4.78;99.37;95393.96;108495;1280;125722;-84
2024/03/24 07:56:00;;;;;;;;;;;;;;;4.82;99.67;95391.48;108676;1278;22577;-84
2024/03/24 07:58:27;;;;;;;;;;;;;;;4.86;99.45;95390.91;108609;1280;22506;-84
2024/03/24 08:00:53;;;;;;;;;;;;;;;4.84;98.38;95393.63;108489;1280;125399;-85
2024/03/24 08:03:20;;;;;;;;;;;;;;;4.82;98.36;95403.81;108562;1280;22522;-84
2024/03/24 08:05:46;;;;;;;;;;;;;;;4.78;96.98;95401.33;108498;1279;124543;-84
2024/03/24 08:08:12;;;;;;;;;;;;;;;4.76;97.05;95399.67;108770;1278;22897;-83
2024/03/24 08:10:39;;;;;;;;;;;;;;;4.77;95.31;95406.96;108620;1278;25253;-84
2024/03/24 08:13:05;;;;;;;;;;;;;;;4.77;95.67;95407.61;108552;1279;124605;-84
2024/03/24 08:15:31;;;;;;;;;;;;;;;4.85;96.76;95409.16;108791;1280;23859;-84
2024/03/24 08:17:58;;;;;;;;;;;;;;;4.95;97.25;95404.96;108563;1278;125118;-87
2024/03/24 08:20:24;;;;;;;;;;;;;;;5.01;96.25;95405.68;108633;1278;22572;-87
2024/03/24 08:22:51;;;;;;;;;;;;;;;5.01;96.36;95414.92;108689;1280;24791;-87
2024/03/24 08:25:17;;;;;;;;;;;;;;;4.96;95.86;95425.99;109913;1278;124215;-88
2024/03/24 08:27:44;;;;;;;;;;;;;;;4.78;96.65;95431.76;110056;1273;22444;-88
2024/03/24 08:30:11;;;;;;;;;;;;;;;4.58;96.82;95443.05;109951;1276;125091;-88
2024/03/24 08:32:37;;;;;;;;;;;;;;;4.42;97.39;95442.95;109998;1278;23056;-88
2024/03/24 08:35:04;;;;;;;;;;;;;;;4.25;98.19;95444.90;109411;1280;124528;-87
2024/03/24 08:37:31;;;;;;;;;;;;;;;4.13;98.56;95448.56;110071;1273;23446;-86
2024/03/24 08:39:57;;;;;;;;;;;;;;;4.04;99.16;95449.54;110068;1278;22387;-86
2024/03/24 08:42:23;;;;;;;;;;;;;;;3.98;99.62;95452.61;109908;1278;125488;-86
2024/03/24 08:44:50;;;;;;;;;;;;;;;3.99;100.00;95448.11;110056;1278;22494;-85
2024/03/24 08:47:16;;;;;;;;;;;;;;;4.02;99.99;95447.08;109961;1280;125218;-86
2024/03/24 08:49:42;;;;;;;;;;;;;;;4.07;100.00;95444.14;110001;1280;22405;-86
2024/03/24 08:52:08;;;;;;;;;;;;;;;4.11;100.00;95442.82;110019;1278;22410;-86
2024/03/24 08:54:35;;;;;;;;;;;;;;;4.12;100.00;95440.19;109995;1269;124998;-86
2024/03/24 08:57:01;;;;;;;;;;;;;;;4.11;99.81;95437.20;109985;1280;22913;-86
2024/03/24 08:59:27;;;;;;;;;;;;;;;4.06;99.86;95440.27;109033;1280;125348;-88
2024/03/24 09:01:53;;;;;;;;;;;;;;;4.07;100.00;95438.42;108644;1273;22559;-88
2024/03/24 09:04:20;;;;;;;;;;;;;;;4.12;100.00;95442.02;108690;1280;23826;-87
2024/03/24 09:06:46;;;;;;;;;;;;;;;4.12;100.00;95437.27;108588;1278;124616;-87
2024/03/24 09:09:12;;;;;;;;;;;;;;;4.12;100.00;95433.02;108762;1272;23338;-88
2024/03/24 09:11:38;;;;;;;;;;;;;;;4.13;100.00;95431.44;108592;1275;125614;-86
2024/03/24 09:14:05;;;;;;;;;;;;;;;4.15;100.00;95431.11;108787;1280;22597;-88
2024/03/24 09:16:31;;;;;;;;;;;;;;;4.14;100.00;95430.46;108685;1278;22780;-87
2024/03/24 09:18:57;;;;;;;;;;;;;;;4.14;100.00;95430.98;108639;1276;125381;-88
2024/03/24 09:21:23;;;;;;;;;;;;;;;4.15;100.00;95424.90;108723;1280;22513;-88
2024/03/24 09:23:50;;;;;;;;;;;;;;;4.15;100.00;95427.16;108625;1279;124768;-87
2024/03/24 09:26:16;;;;;;;;;;;;;;;4.13;100.00;95427.70;108761;1277;22536;-88
2024/03/24 09:28:45;;;;;;;;;;;;;;;4.10;100.00;95425.15;108735;1278;22537;-87
2024/03/24 09:31:12;;;;;;;;;;;;;;;4.07;100.00;95425.77;108516;1280;124773;-87
2024/03/24 09:33:39;;;;;;;;;;;;;;;4.08;100.00;95423.99;108700;1279;22543;-88
2024/03/24 09:36:05;;;;;;;;;;;;;;;4.06;100.00;95421.96;108664;1268;124744;-88
2024/03/24 09:38:32;;;;;;;;;;;;;;;4.00;99.92;95424.96;108640;1280;22542;-87
2024/03/24 09:40:58;;;;;;;;;;;;;;;4.01;100.00;95414.11;108476;1280;209410;-87
2024/03/24 09:43:24;;;;;;;;;;;;;;;4.06;100.00;95412.48;108613;1280;25366;-87
2024/03/24 09:45:50;;;;;;;;;;;;;;;4.15;100.00;95406.39;108642;1280;23704;-87
2024/03/24 09:48:17;;;;;;;;;;;;;;;4.31;100.00;95399.55;108641;1278;124559;-87
2024/03/24 09:50:43;;;;;;;;;;;;;;;4.47;100.00;95390.94;108587;1280;22536;-88
2024/03/24 09:53:09;;;;;;;;;;;;;;;4.70;100.00;95389.95;108573;1280;125646;-87
2024/03/24 09:55:36;;;;;;;;;;;;;;;4.85;100.00;95383.91;108626;1277;25976;-87
2024/03/24 09:58:02;;;;;;;;;;;;;;;4.85;100.00;95383.58;108631;1280;22680;-87
2024/03/24 10:00:28;;;;;;;;;;;;;;;4.82;100.00;95390.58;108497;1276;124538;-87
2024/03/24 10:02:55;;;;;;;;;;;;;;;4.74;99.95;95388.06;108704;1280;22994;-87
2024/03/24 10:05:21;;;;;;;;;;;;;;;4.60;99.32;95394.01;108508;1266;124667;-87
2024/03/24 10:07:47;;;;;;;;;;;;;;;4.45;99.28;95388.73;108592;1277;22559;-87
2024/03/24 10:10:14;;;;;;;;;;;;;;;4.29;98.72;95387.25;108596;1273;22568;-87
2024/03/24 10:12:51;;;;;;;;;;;;;;;4.22;99.73;95380.96;108570;1278;124376;-87
2024/03/24 10:15:18;;;;;;;;;;;;;;;4.26;100.00;95373.20;108576;1282;22551;-87
2024/03/24 10:17:44;;;;;;;;;;;;;;;4.33;100.00;95372.38;108421;1281;125014;-87
2024/03/24 10:20:14;;;;;;;;;;;;;;;4.43;100.00;95376.42;108597;1281;22504;-88
2024/03/24 10:22:41;;;;;;;;;;;;;;;4.51;100.00;95387.53;108692;1273;23222;-87
2024/03/24 10:25:10;;;;;;;;;;;;;;;4.44;100.00;95387.67;108494;1280;124585;-86
2024/03/24 10:27:40;;;;;;;;;;;;;;;4.31;100.00;95393.83;108595;1275;22477;-87
2024/03/24 10:30:07;;;;;;;;;;;;;;;4.21;100.00;95393.10;108583;1278;125050;-86
2024/03/24 10:32:33;;;;;;;;;;;;;;;4.10;99.87;95390.73;108689;1280;22578;-87
2024/03/24 10:35:00;;;;;;;;;;;;;;;4.00;99.63;95390.08;108610;1280;125032;-87
2024/03/24 10:37:26;;;;;;;;;;;;;;;3.97;99.91;95383.83;108634;1279;23011;-87
2024/03/24 10:39:53;;;;;;;;;;;;;;;4.06;100.00;95376.85;108736;1280;22455;-87
2024/03/24 10:42:19;;;;;;;;;;;;;;;4.24;100.00;95371.20;108541;1276;124606;-88
2024/03/24 10:44:45;;;;;;;;;;;;;;;4.44;100.00;95368.73;108636;1276;25390;-87
2024/03/24 10:47:12;;;;;;;;;;;;;;;4.69;100.00;95365.33;108527;1279;125160;-88
2024/03/24 10:49:39;;;;;;;;;;;;;;;4.94;100.00;95360.30;108608;1277;22512;-87
2024/03/24 10:52:05;;;;;;;;;;;;;;;5.14;100.00;95361.77;108626;1275;22550;-88
2024/03/24 10:54:32;;;;;;;;;;;;;;;5.35;100.00;95362.14;108489;1277;124540;-87
2024/03/24 10:56:58;;;;;;;;;;;;;;;5.40;100.00;95366.95;108621;1279;23807;-87
2024/03/24 10:59:25;;;;;;;;;;;;;;;5.38;100.00;95370.75;108506;1273;125260;-87
2024/03/24 11:01:51;;;;;;;;;;;;;;;5.32;99.63;95372.82;108701;1273;22513;-88
2024/03/24 11:04:18;;;;;;;;;;;;;;;5.21;98.58;95377.00;108605;1274;22544;-88
2024/03/24 11:06:44;;;;;;;;;;;;;;;5.03;97.17;95376.42;108559;1277;124556;-88
2024/03/24 11:09:12;;;;;;;;;;;;;;;4.82;96.55;95373.67;108683;1281;22567;-87
2024/03/24 11:11:38;;;;;;;;;;;;;;;4.66;97.08;95375.27;108586;1281;124607;-87
2024/03/24 11:14:05;;;;;;;;;;;;;;;4.57;97.98;95380.39;108670;1275;24298;-87
2024/03/24 11:16:31;;;;;;;;;;;;;;;4.54;98.30;95373.18;108613;1273;23750;-88
2024/03/24 11:19:09;;;;;;;;;;;;;;;4.53;97.33;95370.98;108651;1280;124404;-87
2024/03/24 11:21:39;;;;;;;;;;;;;;;4.55;97.69;95372.37;108678;1280;22565;-87
2024/03/24 11:24:24;;;;;;;;;;;;;;;4.57;97.34;95369.81;108532;1275;125132;-88
2024/03/24 11:26:50;;;;;;;;;;;;;;;4.60;96.94;95368.91;108609;1281;22508;-87
2024/03/24 11:29:35;;;;;;;;;;;;;;;4.66;97.16;95360.15;108553;1280;124611;-87
2024/03/24 11:32:02;;;;;;;;;;;;;;;4.72;97.00;95348.16;108660;1271;22575;-87
2024/03/24 11:34:28;;;;;;;;;;;;;;;4.86;98.26;95352.05;108604;1273;24254;-87
2024/03/24 11:36:54;;;;;;;;;;;;;;;5.05;99.88;95350.98;108604;1270;124826;-87
2024/03/24 11:39:20;;;;;;;;;;;;;;;5.28;100.00;95343.08;108778;1272;22558;-88
2024/03/24 11:41:53;;;;;;;;;;;;;;;5.52;99.98;95336.69;108584;1277;125106;-88
2024/03/24 11:44:20;;;;;;;;;;;;;;;5.76;99.42;95337.48;108631;1280;25376;-88
2024/03/24 11:46:59;;;;;;;;;;;;;;;5.87;96.95;95335.27;108607;1278;22605;-88
2024/03/24 11:49:46;;;;;;;;;;;;;;;5.91;96.53;95334.13;108641;1276;24369;-87
2024/03/24 11:52:14;;;;;;;;;;;;;;;5.95;95.58;95331.27;108676;1280;22470;-88
2024/03/24 11:54:40;;;;;;;;;;;;;;;6.01;95.20;95331.16;108644;1280;124428;-88
2024/03/24 11:57:06;;;;;;;;;;;;;;;6.11;93.91;95326.29;108719;1277;22513;-87
2024/03/24 11:59:33;;;;;;;;;;;;;;;6.18;92.61;95321.84;108639;1280;124570;-87
2024/03/24 12:01:59;;;;;;;;;;;;;;;6.27;93.17;95313.90;108735;1279;22554;-87
2024/03/24 12:04:28;;;;;;;;;;;;;;;6.40;91.63;95314.13;108699;1276;22505;-86
2024/03/24 12:06:55;;;;;;;;;;;;;;;6.42;89.85;95316.38;108577;1274;125083;-87
2024/03/24 12:09:22;;;;;;;;;;;;;;;6.47;88.69;95313.77;108721;1279;22517;-88
2024/03/24 12:11:54;;;;;;;;;;;;;;;6.47;83.29;95314.44;108638;1280;124404;-88
2024/03/24 12:14:21;;;;;;;;;;;;;;;6.39;84.54;95319.17;110083;1274;22331;-88
2024/03/24 12:16:47;;;;;;;;;;;;;;;6.35;85.86;95312.42;110061;1280;23213;-86
2024/03/24 12:19:14;;;;;;;;;;;;;;;6.34;85.16;95313.75;109966;1272;124537;-86
2024/03/24 12:21:41;;;;;;;;;;;;;;;6.38;88.60;95307.09;110037;1280;23097;-87
2024/03/24 12:24:07;;;;;;;;;;;;;;;6.40;88.74;95302.70;109984;1273;124339;-83
2024/03/24 12:26:34;;;;;;;;;;;;;;;6.45;90.70;95299.49;110118;1274;22440;-83
2024/03/24 12:29:00;;;;;;;;;;;;;;;6.62;89.16;95299.23;109967;1279;124506;-83
2024/03/24 12:31:26;;;;;;;;;;;;;;;6.79;83.91;95304.05;110057;1279;22482;-83
2024/03/24 12:33:53;;;;;;;;;;;;;;;6.88;84.16;95306.73;109998;1276;22415;-83